Time;durP1;ratioP1;P1;durP2;ratioP2;P2;SDS_P1;SDS_P2;PMS_P1;PMS_P2;Temp;Humidity;BMP_temperature;BMP_pressure;BME280_temperature;BME280_humidity;BME280_pressure;Samples;Min_cycle;Max_cycle;Signal;HPM_P1;HPM_P2
2023/09/15 00:00:56;;;;;;;2.60;1.02;;;;;;;10.27;100.00;102189.16;5008464;28;20207;-46
2023/09/15 00:03:22;;;;;;;1.33;1.00;;;;;;;10.13;100.00;102191.16;5008507;28;20160;-45
2023/09/15 00:05:47;;;;;;;2.42;1.30;;;;;;;10.03;100.00;102191.28;5006680;28;20603;-49
2023/09/15 00:08:13;;;;;;;5.30;1.30;;;;;;;10.05;100.00;102193.94;5008081;28;20181;-52
2023/09/15 00:10:39;;;;;;;3.78;1.20;;;;;;;10.04;100.00;102192.19;5011520;28;20204;-47
2023/09/15 00:13:05;;;;;;;3.42;1.13;;;;;;;10.06;100.00;102199.28;5011825;28;20197;-46
2023/09/15 00:15:32;;;;;;;2.15;1.02;;;;;;;10.07;100.00;102190.31;5011922;28;20188;-47
2023/09/15 00:17:58;;;;;;;3.72;1.30;;;;;;;10.03;100.00;102187.72;5001312;23;20226;-86
2023/09/15 00:20:25;;;;;;;2.70;1.35;;;;;;;9.98;100.00;102186.91;4965446;28;20738;-86
2023/09/15 00:22:55;;;;;;;3.25;1.33;;;;;;;9.95;100.00;102186.94;4987280;28;20673;-87
2023/09/15 00:25:30;;;;;;;1.58;1.02;;;;;;;9.95;100.00;102200.31;4977069;28;20276;-87
2023/09/15 00:28:00;;;;;;;2.83;1.00;;;;;;;10.02;100.00;102191.31;4980478;28;20220;-86
2023/09/15 00:30:27;;;;;;;2.80;1.75;;;;;;;9.83;100.00;102190.69;4984140;28;20190;-87
2023/09/15 00:32:54;;;;;;;1.80;1.30;;;;;;;9.78;100.00;102192.53;4967044;28;20235;-86
2023/09/15 00:35:23;;;;;;;3.38;1.10;;;;;;;9.82;100.00;102178.22;4972670;28;20181;-86
2023/09/15 00:37:50;;;;;;;2.13;1.23;;;;;;;9.88;100.00;102188.81;4984645;28;20193;-86
2023/09/15 00:40:18;;;;;;;3.85;1.35;;;;;;;9.81;100.00;102188.00;4968629;28;20185;-86
2023/09/15 00:42:45;;;;;;;3.22;1.20;;;;;;;9.75;100.00;102188.13;4988457;28;20564;-86
2023/09/15 00:45:15;;;;;;;1.65;1.00;;;;;;;9.74;100.00;102191.69;4995416;28;20174;-86
2023/09/15 00:47:46;;;;;;;2.80;1.20;;;;;;;9.81;100.00;102195.16;4971171;28;20182;-86
2023/09/15 00:50:17;;;;;;;3.30;1.30;;;;;;;9.75;100.00;102187.22;4977131;28;20228;-86
2023/09/15 00:52:49;;;;;;;2.60;1.33;;;;;;;9.83;100.00;102190.69;4980554;28;20235;-86
2023/09/15 00:55:15;;;;;;;1.15;0.90;;;;;;;9.90;100.00;102190.59;4989387;28;20176;-86
2023/09/15 00:57:41;;;;;;;2.97;1.08;;;;;;;9.87;100.00;102187.94;4988135;28;20284;-86
2023/09/15 01:00:13;;;;;;;1.38;0.80;;;;;;;9.90;100.00;102182.56;4968111;28;20192;-86
2023/09/15 01:02:40;;;;;;;1.08;0.98;;;;;;;9.95;100.00;102186.94;4992147;28;20276;-86
2023/09/15 01:05:11;;;;;;;3.53;1.10;;;;;;;9.86;100.00;102180.81;4986786;28;20205;-86
2023/09/15 01:07:40;;;;;;;3.58;1.15;;;;;;;9.81;100.00;102188.00;4978701;28;20632;-86
2023/09/15 01:10:07;;;;;;;5.45;1.42;;;;;;;9.55;100.00;102188.34;4972556;28;20647;-86
2023/09/15 01:12:33;;;;;;;2.15;1.25;;;;;;;9.45;100.00;102184.91;4983327;28;20656;-87
2023/09/15 01:15:01;;;;;;;1.67;1.08;;;;;;;9.52;100.00;102180.38;4989150;28;20177;-86
2023/09/15 01:17:32;;;;;;;1.10;1.00;;;;;;;9.66;100.00;102185.53;4986805;28;20182;-87
2023/09/15 01:20:18;;;;;;;4.60;1.60;;;;;;;9.54;100.00;102180.34;4993217;28;20341;-87
2023/09/15 01:23:14;;;;;;;2.05;1.30;;;;;;;9.58;100.00;102191.00;4984313;28;20219;-87
2023/09/15 01:26:11;;;;;;;2.25;1.20;;;;;;;9.62;100.00;102187.38;4983470;28;20185;-87
2023/09/15 01:28:55;;;;;;;4.97;1.08;;;;;;;9.55;100.00;102182.97;4985401;28;20269;-87
2023/09/15 01:31:22;;;;;;;1.77;0.90;;;;;;;9.61;100.00;102187.38;4993379;28;20554;-87
2023/09/15 01:33:48;;;;;;;2.05;1.08;;;;;;;9.54;100.00;102177.69;4982346;28;20214;-87
2023/09/15 01:36:15;;;;;;;1.92;1.17;;;;;;;9.51;100.00;102188.41;4978642;28;20202;-87
2023/09/15 01:38:40;;;;;;;2.40;1.10;;;;;;;9.34;100.00;102177.91;4989683;28;20190;-87
2023/09/15 01:41:06;;;;;;;3.97;1.30;;;;;;;9.13;100.00;102179.91;4966176;28;20194;-87
2023/09/15 01:43:31;;;;;;;4.45;1.40;;;;;;;9.06;100.00;102176.41;4986518;28;20687;-87
2023/09/15 01:45:57;;;;;;;2.42;1.20;;;;;;;9.08;100.00;102177.28;4971076;28;20207;-87
2023/09/15 01:48:23;;;;;;;1.75;1.08;;;;;;;9.09;100.00;102167.47;4976023;28;20196;-87
2023/09/15 01:50:50;;;;;;;5.20;1.33;;;;;;;9.02;100.00;102169.31;4982795;28;20217;-87
2023/09/15 01:53:16;;;;;;;3.05;1.33;;;;;;;8.98;100.00;102167.56;4980286;28;20220;-87
2023/09/15 01:55:43;;;;;;;1.65;1.20;;;;;;;9.10;100.00;102173.72;4984777;28;20178;-87
2023/09/15 01:58:08;;;;;;;2.15;1.10;;;;;;;9.15;100.00;102169.19;4967674;28;20335;-87
2023/09/15 02:00:35;;;;;;;1.90;1.23;;;;;;;9.13;100.00;102173.69;4981519;28;20256;-87
2023/09/15 02:03:01;;;;;;;2.30;1.10;;;;;;;9.14;100.00;102178.09;4979856;28;20205;-87
2023/09/15 02:05:27;;;;;;;2.92;1.08;;;;;;;9.13;100.00;102171.88;4997261;28;20241;-87
2023/09/15 02:07:52;;;;;;;1.85;1.30;;;;;;;8.96;100.00;102173.84;4967061;28;20208;-87
2023/09/15 02:10:18;;;;;;;1.23;1.10;;;;;;;9.02;100.00;102180.00;4986851;28;20551;-87
2023/09/15 02:12:43;;;;;;;1.77;1.20;;;;;;;9.01;100.00;102177.38;4988228;28;20293;-87
2023/09/15 02:15:10;;;;;;;2.13;1.40;;;;;;;9.00;100.00;102180.94;4982419;28;20185;-87
2023/09/15 02:17:37;;;;;;;2.15;1.13;;;;;;;9.00;100.00;102176.47;4960001;28;20193;-87
2023/09/15 02:20:12;;;;;;;3.63;1.30;;;;;;;8.95;100.00;102175.63;4988894;28;20193;-87
2023/09/15 02:22:42;;;;;;;3.42;1.33;;;;;;;8.96;100.00;102174.72;4992660;28;20205;-87
2023/09/15 02:25:09;;;;;;;2.55;1.20;;;;;;;8.96;100.00;102164.03;4990357;28;20186;-86
2023/09/15 02:27:37;;;;;;;1.67;1.30;;;;;;;8.95;100.00;102177.44;4979663;28;20177;-87
2023/09/15 02:30:06;;;;;;;1.10;1.05;;;;;;;8.94;100.00;102173.84;4975262;28;20284;-87
2023/09/15 02:32:32;;;;;;;2.13;1.27;;;;;;;8.72;100.00;102174.97;4976467;28;20736;-87
2023/09/15 02:34:58;;;;;;;1.63;1.25;;;;;;;8.82;100.00;102164.19;4970864;28;20253;-87
2023/09/15 02:37:23;;;;;;;2.97;1.40;;;;;;;8.58;100.00;102162.59;4982620;28;20650;-87
2023/09/15 02:39:49;;;;;;;1.55;1.30;;;;;;;8.55;100.00;102161.75;4973273;28;20186;-87
2023/09/15 02:42:15;;;;;;;1.25;1.23;;;;;;;8.66;100.00;102162.56;4985004;28;20748;-87
2023/09/15 02:44:43;;;;;;;2.28;1.70;;;;;;;8.61;100.00;102162.56;4966567;28;20181;-87
2023/09/15 02:47:09;;;;;;;4.00;1.50;;;;;;;8.52;100.00;102159.97;4966810;28;20173;-87
2023/09/15 02:49:35;;;;;;;2.88;1.38;;;;;;;8.47;100.00;102152.94;4972075;28;20522;-87
2023/09/15 02:52:05;;;;;;;2.50;1.50;;;;;;;8.41;100.00;102156.53;4985720;28;20352;-86
2023/09/15 02:54:30;;;;;;;2.33;1.35;;;;;;;8.50;100.00;102152.88;4986439;28;20239;-87
2023/09/15 02:56:56;;;;;;;2.40;1.70;;;;;;;8.50;100.00;102163.56;4983497;28;20272;-87
2023/09/15 02:59:21;;;;;;;1.63;1.50;;;;;;;8.44;100.00;102160.06;4983122;28;20650;-87
2023/09/15 03:01:50;;;;;;;1.88;1.33;;;;;;;8.44;100.00;102159.19;4973192;28;20193;-86
2023/09/15 03:04:19;;;;;;;1.83;1.30;;;;;;;8.40;100.00;102152.97;4991004;28;20256;-87
2023/09/15 03:06:47;;;;;;;1.60;1.50;;;;;;;8.52;100.00;102157.31;4966707;28;20189;-86
2023/09/15 03:09:12;;;;;;;2.70;1.48;;;;;;;8.52;100.00;102157.31;4965879;28;20224;-87
2023/09/15 03:11:38;;;;;;;2.17;1.25;;;;;;;8.55;100.00;102143.94;4985028;28;20265;-87
2023/09/15 03:14:05;;;;;;;2.05;1.38;;;;;;;8.55;100.00;102151.97;4997841;28;20449;-87
2023/09/15 03:16:30;;;;;;;2.90;1.50;;;;;;;8.55;100.00;102148.38;4987067;28;20185;-87
2023/09/15 03:18:56;;;;;;;1.83;1.17;;;;;;;8.47;100.00;102151.13;4980284;28;20192;-87
2023/09/15 03:21:22;;;;;;;2.50;1.25;;;;;;;8.37;100.00;102141.38;4985084;28;20348;-87
2023/09/15 03:23:49;;;;;;;2.42;1.48;;;;;;;8.33;100.00;102150.31;4987116;28;20275;-87
2023/09/15 03:26:14;;;;;;;2.25;1.20;;;;;;;8.33;100.00;102148.56;4988982;28;20181;-87
2023/09/15 03:28:44;;;;;;;2.88;1.40;;;;;;;8.37;100.00;102142.25;4968667;28;20177;-87
2023/09/15 03:31:10;;;;;;;1.85;1.15;;;;;;;8.39;100.00;102147.59;4987504;28;20297;-87
2023/09/15 03:33:36;;;;;;;1.75;1.20;;;;;;;8.40;100.00;102139.63;4976530;28;20241;-87
2023/09/15 03:36:01;;;;;;;1.85;1.52;;;;;;;8.37;100.00;102146.72;4980084;28;20182;-87
2023/09/15 03:38:27;;;;;;;1.77;1.42;;;;;;;8.38;100.00;102148.50;4971251;28;20200;-87
2023/09/15 03:40:53;;;;;;;1.63;1.25;;;;;;;8.39;100.00;102151.16;4984184;28;20206;-87
2023/09/15 03:43:19;;;;;;;2.47;1.40;;;;;;;8.37;100.00;102142.25;4973295;28;20198;-87
2023/09/15 03:45:46;;;;;;;3.55;1.45;;;;;;;8.34;100.00;102149.44;5001365;28;20185;-87
2023/09/15 03:48:12;;;;;;;1.98;1.00;;;;;;;8.34;100.00;102146.75;4995787;28;20500;-87
2023/09/15 03:50:38;;;;;;;2.15;1.42;;;;;;;8.31;100.00;102145.00;4973082;28;20646;-87
2023/09/15 03:53:03;;;;;;;2.35;1.40;;;;;;;8.25;100.00;102142.38;4990846;28;20205;-87
2023/09/15 03:55:29;;;;;;;1.95;1.20;;;;;;;8.18;100.00;102141.53;4986054;28;20194;-87
2023/09/15 03:57:55;;;;;;;1.83;1.45;;;;;;;8.20;100.00;102142.41;4990094;28;20205;-87
2023/09/15 04:00:21;;;;;;;1.98;1.50;;;;;;;8.24;100.00;102141.50;4982796;28;20672;-87
2023/09/15 04:02:48;;;;;;;1.50;1.40;;;;;;;8.25;100.00;102145.94;4985231;28;20813;-87
2023/09/15 04:05:13;;;;;;;1.30;1.20;;;;;;;8.22;100.00;102135.28;4987177;28;20189;-86
2023/09/15 04:07:39;;;;;;;2.97;1.65;;;;;;;8.21;100.00;102145.97;4968867;28;20204;-87
2023/09/15 04:10:08;;;;;;;2.60;1.50;;;;;;;8.10;100.00;102134.47;4983883;28;20185;-87
2023/09/15 04:12:36;;;;;;;1.90;1.40;;;;;;;8.04;100.00;102148.75;4986328;28;20626;-87
2023/09/15 04:15:06;;;;;;;2.58;1.48;;;;;;;8.10;100.00;102138.03;4969587;28;20186;-87
2023/09/15 04:17:32;;;;;;;1.42;1.30;;;;;;;8.19;100.00;102137.06;4986269;28;20187;-87
2023/09/15 04:19:58;;;;;;;3.28;1.50;;;;;;;8.16;100.00;102143.31;4986733;28;20251;-87
2023/09/15 04:22:28;;;;;;;1.83;1.60;;;;;;;8.11;100.00;102139.81;4985309;28;20208;-87
2023/09/15 04:24:54;;;;;;;2.20;1.48;;;;;;;7.94;100.00;102139.91;4984337;28;20178;-86
2023/09/15 04:27:19;;;;;;;2.70;1.70;;;;;;;7.91;100.00;102147.03;4986248;28;20595;-87
2023/09/15 04:29:54;;;;;;;2.28;1.70;;;;;;;7.92;100.00;102143.50;4986344;28;20554;-87
2023/09/15 04:32:23;;;;;;;2.17;1.67;;;;;;;7.86;100.00;102151.53;4977264;28;20204;-87
2023/09/15 04:34:50;;;;;;;2.90;1.70;;;;;;;7.89;100.00;102146.16;4988155;28;20221;-87
2023/09/15 04:37:15;;;;;;;2.35;1.63;;;;;;;7.88;100.00;102150.63;4974401;28;20248;-87
2023/09/15 04:39:41;;;;;;;2.22;1.73;;;;;;;7.89;100.00;102144.38;4975740;28;20181;-87
2023/09/15 04:42:09;;;;;;;3.10;1.80;;;;;;;7.91;100.00;102147.03;4982824;28;20268;-87
2023/09/15 04:44:34;;;;;;;3.58;1.73;;;;;;;7.83;100.00;102145.31;4969663;28;20173;-87
2023/09/15 04:47:01;;;;;;;1.77;1.65;;;;;;;7.88;100.00;102147.06;4986417;28;20212;-87
2023/09/15 04:49:27;;;;;;;2.55;1.70;;;;;;;7.91;100.00;102145.25;4964642;28;20241;-87
2023/09/15 04:51:54;;;;;;;2.35;1.80;;;;;;;7.88;100.00;102139.94;4998848;28;20233;-87
2023/09/15 04:54:20;;;;;;;2.10;1.45;;;;;;;7.83;100.00;102142.66;4982526;28;20274;-87
2023/09/15 04:56:46;;;;;;;2.13;1.80;;;;;;;7.80;100.00;102139.09;4966817;28;20189;-88
2023/09/15 04:59:18;;;;;;;5.22;1.60;;;;;;;7.81;100.00;102130.22;4967196;28;20231;-86
2023/09/15 05:01:45;;;;;;;1.98;1.50;;;;;;;7.83;100.00;102141.78;4977193;28;20183;-86
2023/09/15 05:04:14;;;;;;;2.08;1.58;;;;;;;7.87;100.00;102138.19;4984080;28;20297;-86
2023/09/15 05:06:40;;;;;;;2.83;2.05;;;;;;;7.87;100.00;102142.63;4965720;28;20186;-85
2023/09/15 05:09:10;;;;;;;2.58;1.63;;;;;;;7.91;100.00;102147.03;4988082;28;20593;-85
2023/09/15 05:11:42;;;;;;;1.92;1.70;;;;;;;7.98;100.00;102140.75;4987483;28;20638;-85
2023/09/15 05:14:07;;;;;;;2.13;1.45;;;;;;;8.02;100.00;102150.53;4973163;28;20265;-85
2023/09/15 05:16:33;;;;;;;1.58;1.40;;;;;;;8.08;100.00;102141.59;4978012;28;20185;-88
2023/09/15 05:18:59;;;;;;;2.78;1.77;;;;;;;8.11;100.00;102155.84;4996190;28;20196;-87
2023/09/15 05:21:24;;;;;;;3.53;1.55;;;;;;;8.17;100.00;102158.44;4988792;28;20582;-87
2023/09/15 05:23:50;;;;;;;2.97;1.73;;;;;;;8.25;100.00;102148.59;4982186;28;20197;-88
2023/09/15 05:26:15;;;;;;;2.83;1.80;;;;;;;8.27;100.00;102156.59;4977485;28;20189;-87
2023/09/15 05:28:41;;;;;;;1.63;1.40;;;;;;;8.33;100.00;102151.22;4967393;28;20186;-87
2023/09/15 05:31:07;;;;;;;3.08;1.67;;;;;;;8.36;100.00;102152.97;4981440;28;20619;-87
2023/09/15 05:33:34;;;;;;;4.60;1.70;;;;;;;8.36;100.00;102144.97;4987073;28;20216;-87
2023/09/15 05:36:00;;;;;;;2.92;1.60;;;;;;;8.41;100.00;102153.84;4983091;28;20189;-87
2023/09/15 05:38:26;;;;;;;4.70;1.90;;;;;;;8.49;100.00;102159.16;4986248;28;20185;-88
2023/09/15 05:41:04;;;;;;;3.70;1.77;;;;;;;8.62;100.00;102156.34;4964359;28;20639;-87
2023/09/15 05:43:29;;;;;;;4.50;1.70;;;;;;;8.74;100.00;102151.78;4988012;28;20758;-88
2023/09/15 05:45:56;;;;;;;3.30;1.90;;;;;;;8.74;100.00;102155.34;4990143;28;20194;-87
2023/09/15 05:48:23;;;;;;;2.78;1.85;;;;;;;8.75;100.00;102148.22;4982993;28;20181;-88
2023/09/15 05:50:52;;;;;;;3.50;1.60;;;;;;;8.88;100.00;102163.25;4987415;28;20193;-87
2023/09/15 05:53:17;;;;;;;3.15;1.98;;;;;;;9.16;100.00;102154.91;4983319;28;20217;-87
2023/09/15 05:55:43;;;;;;;3.40;1.70;;;;;;;9.55;100.00;102169.59;4984192;28;20296;-88
2023/09/15 05:58:09;;;;;;;4.32;1.98;;;;;;;10.06;100.00;102161.78;4990867;28;20179;-87
2023/09/15 06:00:34;;;;;;;2.15;1.40;;;;;;;10.51;100.00;102163.81;4984447;23;20282;-47
2023/09/15 06:03:00;;;;;;;3.72;1.60;;;;;;;10.81;100.00;102151.66;4952996;28;20660;-50
2023/09/15 06:05:25;;;;;;;3.40;1.50;;;;;;;11.21;100.00;102156.28;4954481;28;20183;-46
2023/09/15 06:07:52;;;;;;;4.20;1.60;;;;;;;11.55;100.00;102156.50;4952246;28;20187;-46
2023/09/15 06:10:18;;;;;;;3.70;1.48;;;;;;;11.81;100.00;102151.50;4955257;28;20187;-47
2023/09/15 06:12:43;;;;;;;2.80;1.23;;;;;;;12.05;100.00;102147.41;4968879;28;20189;-42
2023/09/15 06:15:10;;;;;;;3.17;1.13;;;;;;;12.23;100.00;102135.31;4968774;28;20290;-43
2023/09/15 06:17:36;;;;;;;2.35;1.35;;;;;;;12.53;100.00;102128.31;4954161;28;20179;-47
2023/09/15 06:20:01;;;;;;;3.10;1.27;;;;;;;12.95;100.00;102125.41;4953438;28;20266;-43
2023/09/15 06:22:27;;;;;;;2.63;1.15;;;;;;;13.14;100.00;102126.66;4953443;28;20214;-44
2023/09/15 06:24:52;;;;;;;7.35;1.40;;;;;;;13.44;100.00;102124.03;4953935;28;20330;-45
2023/09/15 06:27:18;;;;;;;2.95;1.30;;;;;;;13.66;100.00;102121.56;4952885;28;20265;-44
2023/09/15 06:29:44;;;;;;;3.50;1.20;;;;;;;13.52;100.00;102119.31;4953207;28;20213;-45
2023/09/15 06:32:09;;;;;;;2.67;1.60;;;;;;;13.85;100.00;102126.41;4953405;28;20619;-45
2023/09/15 06:34:35;;;;;;;1.90;1.10;;;;;;;13.96;100.00;102118.88;4953712;28;20202;-42
2023/09/15 06:37:01;;;;;;;1.63;1.40;;;;;;;14.15;98.79;102120.03;4951121;28;20194;-41
2023/09/15 06:39:28;;;;;;;2.85;1.55;;;;;;;14.16;96.79;102113.69;4951903;28;20653;-41
2023/09/15 06:41:54;;;;;;;5.68;1.20;;;;;;;14.51;95.75;102113.47;4952297;28;20293;-40
2023/09/15 06:44:23;;;;;;;2.78;1.40;;;;;;;14.56;93.58;102106.13;4966356;28;20287;-41
2023/09/15 06:46:48;;;;;;;4.22;1.48;;;;;;;14.47;92.97;102107.28;4951381;28;20656;-42
2023/09/15 06:49:16;;;;;;;3.13;1.55;;;;;;;14.42;91.69;102093.09;4953236;28;20298;-41
2023/09/15 06:51:41;;;;;;;4.03;1.73;;;;;;;14.51;91.23;102102.69;4966677;28;20206;-41
2023/09/15 06:54:07;;;;;;;1.67;1.33;;;;;;;14.74;90.63;102104.63;4954686;28;20198;-42
2023/09/15 06:56:32;;;;;;;4.93;1.20;;;;;;;14.95;89.87;102097.56;4954186;28;20186;-42
2023/09/15 06:58:58;;;;;;;1.55;1.30;;;;;;;14.91;88.62;102090.50;4952689;28;20264;-43
2023/09/15 07:01:23;;;;;;;4.07;1.42;;;;;;;15.14;88.20;102098.66;4953442;28;20216;-43
2023/09/15 07:03:49;;;;;;;3.00;1.50;;;;;;;15.29;87.50;102082.81;4951557;28;20664;-40
2023/09/15 07:06:14;;;;;;;5.60;2.13;;;;;;;15.51;86.72;102089.16;4953167;28;20666;-42
2023/09/15 07:08:40;;;;;;;2.53;1.45;;;;;;;15.86;85.57;102078.81;4952306;28;20241;-40
2023/09/15 07:11:05;;;;;;;3.10;1.40;;;;;;;15.88;84.30;102066.13;4953562;28;20323;-41
2023/09/15 07:13:31;;;;;;;3.63;1.73;;;;;;;15.89;83.31;102067.88;4950726;28;20203;-41
2023/09/15 07:15:56;;;;;;;3.88;1.83;;;;;;;16.13;83.40;102059.69;4952821;28;20202;-41
2023/09/15 07:18:23;;;;;;;4.07;1.92;;;;;;;16.39;82.24;102064.00;4953838;28;20603;-43
2023/09/15 07:20:49;;;;;;;2.65;1.60;;;;;;;16.25;81.36;102049.25;4957769;28;20224;-40
2023/09/15 07:23:14;;;;;;;6.22;1.92;;;;;;;16.69;80.52;102051.84;4956335;28;20175;-41
2023/09/15 07:25:44;;;;;;;4.88;1.83;;;;;;;16.36;79.45;102040.66;4957555;28;20179;-41
2023/09/15 07:28:09;;;;;;;2.80;1.52;;;;;;;16.75;79.35;102047.09;4957713;28;20194;-41
2023/09/15 07:30:35;;;;;;;6.30;1.80;;;;;;;16.85;79.25;102054.75;4956193;28;20205;-40
2023/09/15 07:33:01;;;;;;;4.60;1.60;;;;;;;16.81;78.28;102036.91;4955000;28;20238;-42
2023/09/15 07:35:26;;;;;;;3.03;1.85;;;;;;;17.18;78.78;102051.47;4954927;28;20198;-42
2023/09/15 07:37:52;;;;;;;4.43;2.05;;;;;;;17.24;77.82;102050.31;4957095;28;20190;-40
2023/09/15 07:40:22;;;;;;;5.05;2.20;;;;;;;17.27;76.93;102040.22;4952155;28;20187;-44
2023/09/15 07:42:48;;;;;;;5.07;1.67;;;;;;;17.26;76.16;102043.88;4971044;28;20661;-44
2023/09/15 07:45:14;;;;;;;4.63;2.03;;;;;;;17.34;76.21;102035.38;4956780;28;20183;-44
2023/09/15 07:47:39;;;;;;;3.38;1.70;;;;;;;17.68;75.39;102034.63;4956230;28;20187;-44
2023/09/15 07:50:06;;;;;;;2.83;1.45;;;;;;;17.57;75.06;102025.28;4955688;28;20194;-44
2023/09/15 07:52:32;;;;;;;2.83;1.70;;;;;;;17.64;74.21;102015.88;4947111;28;20186;-44
2023/09/15 07:54:58;;;;;;;2.85;1.77;;;;;;;17.45;73.85;102015.91;4955418;28;20211;-44
2023/09/15 07:57:24;;;;;;;3.53;1.75;;;;;;;18.08;75.07;102024.56;4957088;28;20206;-44
2023/09/15 07:59:50;;;;;;;3.60;1.95;;;;;;;17.78;73.58;102015.22;4956117;28;20198;-45
2023/09/15 08:02:15;;;;;;;2.05;1.52;;;;;;;18.16;73.16;102015.16;4955968;28;20206;-45
2023/09/15 08:04:41;;;;;;;2.42;1.63;;;;;;;17.93;71.96;102003.63;4955402;28;20203;-44
2023/09/15 08:07:07;;;;;;;1.70;1.60;;;;;;;18.27;72.36;102015.47;4956240;28;20197;-44
2023/09/15 08:09:33;;;;;;;3.55;1.65;;;;;;;18.25;71.94;102003.81;4955089;28;20181;-45
2023/09/15 08:12:01;;;;;;;3.20;1.70;;;;;;;18.41;71.41;102012.03;4956887;28;20696;-45
2023/09/15 08:14:27;;;;;;;1.83;1.58;;;;;;;18.37;71.73;102008.63;4954812;28;20207;-44
2023/09/15 08:16:53;;;;;;;4.32;1.60;;;;;;;18.64;70.82;102006.25;4955778;28;20192;-43
2023/09/15 08:19:20;;;;;;;1.83;1.33;;;;;;;18.62;69.34;101999.16;4956136;28;20273;-44
2023/09/15 08:21:46;;;;;;;4.30;1.60;;;;;;;18.62;70.17;102002.75;4955901;28;20212;-45
2023/09/15 08:24:12;;;;;;;2.55;1.83;;;;;;;18.88;69.73;101993.22;4956386;28;20171;-45
2023/09/15 08:26:38;;;;;;;3.75;1.75;;;;;;;18.68;69.66;101993.41;4955050;28;20185;-44
2023/09/15 08:29:04;;;;;;;4.00;1.80;;;;;;;18.47;69.33;101998.13;4955499;28;20218;-43
2023/09/15 08:31:31;;;;;;;3.28;1.80;;;;;;;18.56;69.00;101991.34;4954654;28;20297;-43
2023/09/15 08:33:56;;;;;;;3.17;1.73;;;;;;;18.36;68.28;101984.25;4955619;28;20206;-43
2023/09/15 08:36:22;;;;;;;4.20;1.98;;;;;;;18.62;68.94;101991.91;4956252;28;20209;-43
2023/09/15 08:38:47;;;;;;;2.80;1.75;;;;;;;18.49;67.90;101985.38;4954079;28;20599;-44
2023/09/15 08:41:34;;;;;;;5.45;1.63;;;;;;;18.46;68.81;101999.97;4955645;28;20206;-44
2023/09/15 08:44:01;;;;;;;4.22;1.90;;;;;;;18.32;68.22;101981.72;4955432;28;20182;-44
2023/09/15 08:46:30;;;;;;;2.90;1.73;;;;;;;18.43;68.76;101989.31;4955195;28;20193;-45
2023/09/15 08:48:57;;;;;;;4.55;2.00;;;;;;;18.27;68.07;101988.34;4970484;28;20626;-44
2023/09/15 08:51:25;;;;;;;4.10;1.90;;;;;;;18.76;68.79;102002.03;4954262;28;20211;-45
2023/09/15 08:53:56;;;;;;;3.80;2.00;;;;;;;18.84;68.40;101999.78;4955315;28;20217;-44
2023/09/15 08:56:22;;;;;;;2.25;2.00;;;;;;;18.90;67.19;101985.00;4955272;28;20273;-45
2023/09/15 08:58:48;;;;;;;3.45;1.92;;;;;;;19.11;67.08;101977.50;4953939;28;20182;-46
2023/09/15 09:01:15;;;;;;;4.93;2.10;;;;;;;18.75;66.01;101970.41;4955479;28;20222;-39
2023/09/15 09:03:42;;;;;;;2.95;1.95;;;;;;;18.85;65.65;101973.53;4954967;28;20186;-46
2023/09/15 09:06:12;;;;;;;3.15;2.03;;;;;;;19.03;65.32;101960.78;4954592;28;20183;-45
2023/09/15 09:08:46;;;;;;;3.30;1.92;;;;;;;19.20;65.62;101967.94;4952495;28;20531;-44
2023/09/15 09:11:12;;;;;;;2.85;2.13;;;;;;;19.36;64.86;101952.53;4954123;28;20317;-46
2023/09/15 09:13:39;;;;;;;3.15;2.15;;;;;;;19.09;64.99;101946.84;4954446;28;20199;-45
2023/09/15 09:16:07;;;;;;;3.58;2.30;;;;;;;19.39;65.12;101951.50;4953146;28;20273;-43
2023/09/15 09:18:33;;;;;;;4.30;1.90;;;;;;;19.63;64.36;101944.63;4969595;28;20186;-45
2023/09/15 09:21:02;;;;;;;4.38;2.25;;;;;;;19.64;63.77;101937.38;4954637;28;20298;-43
2023/09/15 09:23:28;;;;;;;3.58;1.98;;;;;;;19.77;63.75;101946.56;4953391;28;20222;-41
2023/09/15 09:25:53;;;;;;;2.70;2.10;;;;;;;19.60;62.99;101931.22;4968915;28;20226;-43
2023/09/15 09:28:19;;;;;;;3.88;2.20;;;;;;;19.37;62.66;101926.25;4954305;28;20225;-46
2023/09/15 09:30:44;;;;;;;3.47;1.90;;;;;;;19.49;63.16;101931.84;4953262;28;20218;-46
2023/09/15 09:33:11;;;;;;;4.97;2.17;;;;;;;19.29;63.91;101943.00;4955640;28;20210;-45
2023/09/15 09:35:37;;;;;;;5.25;2.10;;;;;;;20.21;63.99;101948.47;4955557;28;20274;-44
2023/09/15 09:38:04;;;;;;;3.92;2.00;;;;;;;20.16;62.01;101935.16;4953663;28;20188;-46
2023/09/15 09:40:31;;;;;;;3.50;1.88;;;;;;;20.34;61.93;101921.38;4953140;28;20261;-47
2023/09/15 09:42:57;;;;;;;3.60;2.05;;;;;;;19.94;61.55;101912.91;4951363;28;20660;-48
2023/09/15 09:45:27;;;;;;;5.65;1.92;;;;;;;20.25;60.59;101909.22;4953049;28;20193;-43
2023/09/15 09:47:54;;;;;;;3.08;2.10;;;;;;;19.90;61.42;101914.97;4968912;28;20194;-44
2023/09/15 09:50:20;;;;;;;2.40;1.60;;;;;;;20.19;61.34;101915.03;4954220;28;20191;-46
2023/09/15 09:52:46;;;;;;;3.80;2.00;;;;;;;19.91;61.19;101913.97;4953971;28;20194;-44
2023/09/15 09:55:14;;;;;;;5.07;2.22;;;;;;;19.81;61.00;101903.75;4955963;28;20431;-45
2023/09/15 09:57:40;;;;;;;5.53;2.10;;;;;;;20.03;60.31;101898.78;4954236;28;20241;-46
2023/09/15 10:00:10;;;;;;;4.28;1.85;;;;;;;20.24;60.83;101895.69;4943618;28;20195;-46
2023/09/15 10:02:39;;;;;;;3.10;1.80;;;;;;;19.99;61.14;101897.22;4951832;28;20197;-43
2023/09/15 10:05:05;;;;;;;2.97;1.77;;;;;;;20.43;60.60;101901.75;4953529;28;20201;-44
2023/09/15 10:07:31;;;;;;;2.92;2.08;;;;;;;20.08;60.03;101895.78;4955412;28;20237;-44
2023/09/15 10:09:58;;;;;;;3.83;1.63;;;;;;;19.94;59.65;101888.44;4969482;28;20194;-44
2023/09/15 10:12:25;;;;;;;4.90;2.00;;;;;;;20.29;59.90;101894.44;4955262;28;20202;-46
2023/09/15 10:14:51;;;;;;;4.50;1.60;;;;;;;20.22;59.71;101882.16;4955432;28;20214;-48
2023/09/15 10:17:18;;;;;;;3.78;1.70;;;;;;;19.98;59.64;101875.53;4955703;28;20174;-44
2023/09/15 10:19:47;;;;;;;2.78;1.77;;;;;;;20.04;59.82;101877.88;4954440;28;20260;-45
2023/09/15 10:22:14;;;;;;;3.40;1.40;;;;;;;20.70;59.77;101879.22;4953257;28;20214;-45
2023/09/15 10:24:44;;;;;;;5.03;1.80;;;;;;;20.51;58.91;101857.69;4952950;28;20236;-44
2023/09/15 10:27:09;;;;;;;3.83;1.73;;;;;;;20.43;58.56;101852.75;4954323;28;20191;-45
2023/09/15 10:29:37;;;;;;;2.92;1.40;;;;;;;20.30;58.80;101855.34;4953695;28;20198;-45
2023/09/15 10:32:04;;;;;;;5.45;1.50;;;;;;;20.73;58.48;101860.81;4952550;28;20276;-44
2023/09/15 10:34:32;;;;;;;5.32;1.75;;;;;;;20.53;58.77;101861.19;4953492;28;20210;-46
2023/09/15 10:37:02;;;;;;;4.15;2.13;;;;;;;21.09;58.37;101853.06;4951514;28;20261;-44
2023/09/15 10:39:35;;;;;;;5.43;1.80;;;;;;;20.98;57.03;101832.84;4953794;28;20679;-46
2023/09/15 10:42:08;;;;;;;6.13;2.00;;;;;;;21.39;56.90;101837.38;4953078;28;20684;-44
2023/09/15 10:44:34;;;;;;;4.55;1.80;;;;;;;20.59;56.42;101828.16;4952589;28;20186;-44
2023/09/15 10:47:00;;;;;;;9.40;2.30;;;;;;;20.85;57.19;101831.03;4952792;28;20186;-46
2023/09/15 10:49:25;;;;;;;2.95;1.70;;;;;;;20.65;57.54;101841.38;4953941;28;20196;-46
2023/09/15 10:51:58;;;;;;;7.97;2.38;;;;;;;20.61;57.22;101830.78;4951916;28;20216;-45
2023/09/15 10:54:32;;;;;;;4.55;2.03;;;;;;;20.63;58.47;101839.72;4953102;28;20209;-44
2023/09/15 10:56:59;;;;;;;5.32;2.33;;;;;;;20.61;58.23;101841.69;4952712;28;20546;-45
2023/09/15 10:59:26;;;;;;;3.80;1.90;;;;;;;20.81;57.67;101826.75;4953111;28;20186;-47
2023/09/15 11:01:52;;;;;;;8.02;2.13;;;;;;;20.78;56.77;101809.66;4952774;28;20300;-46
2023/09/15 11:04:20;;;;;;;3.63;2.05;;;;;;;20.57;57.65;101820.09;4952817;28;20527;-45
2023/09/15 11:06:51;;;;;;;3.58;2.00;;;;;;;20.81;57.52;101810.41;4954624;28;20661;-44
2023/09/15 11:09:17;;;;;;;3.90;2.15;;;;;;;20.35;58.15;101823.28;4953834;28;20196;-45
2023/09/15 11:11:51;;;;;;;5.40;1.90;;;;;;;20.17;57.66;101817.16;4952800;28;20224;-46
2023/09/15 11:14:18;;;;;;;7.30;1.92;;;;;;;20.52;57.98;101824.06;4952602;28;20218;-46
2023/09/15 11:16:49;;;;;;;4.63;2.28;;;;;;;20.66;57.71;101824.09;4953254;28;20683;-44
2023/09/15 11:19:18;;;;;;;6.60;2.20;;;;;;;20.74;57.82;101819.00;4952699;28;20668;-46
2023/09/15 11:21:47;;;;;;;3.63;1.70;;;;;;;21.23;57.47;101812.16;4968198;28;20214;-45
2023/09/15 11:24:14;;;;;;;5.32;2.22;;;;;;;20.83;57.04;101792.13;4953429;28;20228;-46